sensor_id;sensor_type;location;lat;lon;timestamp;pressure;altitude;pressure_sealevel;temperature;humidity
69836;BME280;57132;51.972;4.450;2023-03-22T00:00:24;100834.31;;;8.25;100.00
69836;BME280;57132;51.972;4.450;2023-03-22T00:02:52;100831.72;;;8.23;100.00
69836;BME280;57132;51.972;4.450;2023-03-22T00:05:17;100831.34;;;8.15;100.00
69836;BME280;57132;51.972;4.450;2023-03-22T00:07:43;100824.97;;;8.18;100.00
69836;BME280;57132;51.972;4.450;2023-03-22T00:10:08;100828.78;;;8.13;100.00
69836;BME280;57132;51.972;4.450;2023-03-22T00:12:35;100823.75;;;8.09;100.00
69836;BME280;57132;51.972;4.450;2023-03-22T00:15:00;100823.81;;;8.07;100.00
69836;BME280;57132;51.972;4.450;2023-03-22T00:17:26;100824.03;;;8.04;100.00
69836;BME280;57132;51.972;4.450;2023-03-22T00:19:51;100816.97;;;8.03;100.00
69836;BME280;57132;51.972;4.450;2023-03-22T00:22:19;100805.50;;;8.03;100.00
69836;BME280;57132;51.972;4.450;2023-03-22T00:24:44;100807.47;;;7.99;100.00
69836;BME280;57132;51.972;4.450;2023-03-22T00:27:09;100801.31;;;7.99;100.00
69836;BME280;57132;51.972;4.450;2023-03-22T00:29:35;100796.00;;;7.99;100.00
69836;BME280;57132;51.972;4.450;2023-03-22T00:32:00;100793.84;;;8.05;100.00
69836;BME280;57132;51.972;4.450;2023-03-22T00:34:30;100792.03;;;8.06;100.00
69836;BME280;57132;51.972;4.450;2023-03-22T00:36:55;100775.41;;;8.02;100.00
69836;BME280;57132;51.972;4.450;2023-03-22T00:39:21;100779.09;;;8.00;100.00
69836;BME280;57132;51.972;4.450;2023-03-22T00:41:46;100774.44;;;8.03;100.00
69836;BME280;57132;51.972;4.450;2023-03-22T00:44:11;100771.44;;;8.09;100.00
69836;BME280;57132;51.972;4.450;2023-03-22T00:46:37;100773.69;;;8.16;100.00
69836;BME280;57132;51.972;4.450;2023-03-22T00:49:02;100763.53;;;8.22;100.00
69836;BME280;57132;51.972;4.450;2023-03-22T00:51:28;100755.09;;;8.30;100.00
69836;BME280;57132;51.972;4.450;2023-03-22T00:53:53;100755.50;;;8.38;100.00
69836;BME280;57132;51.972;4.450;2023-03-22T00:56:19;100755.13;;;8.44;100.00
69836;BME280;57132;51.972;4.450;2023-03-22T00:58:47;100744.06;;;8.50;100.00
69836;BME280;57132;51.972;4.450;2023-03-22T01:01:12;100740.25;;;8.54;100.00
69836;BME280;57132;51.972;4.450;2023-03-22T01:03:38;100743.03;;;8.53;100.00
69836;BME280;57132;51.972;4.450;2023-03-22T01:06:03;100722.50;;;8.55;100.00
69836;BME280;57132;51.972;4.450;2023-03-22T01:08:29;100729.63;;;8.54;100.00
69836;BME280;57132;51.972;4.450;2023-03-22T01:10:57;100723.38;;;8.55;100.00
69836;BME280;57132;51.972;4.450;2023-03-22T01:13:22;100717.28;;;8.53;100.00
69836;BME280;57132;51.972;4.450;2023-03-22T01:15:51;100708.44;;;8.53;100.00
69836;BME280;57132;51.972;4.450;2023-03-22T01:18:17;100704.94;;;8.52;100.00
69836;BME280;57132;51.972;4.450;2023-03-22T01:20:42;100700.28;;;8.56;100.00
69836;BME280;57132;51.972;4.450;2023-03-22T01:23:07;100693.88;;;8.58;100.00
69836;BME280;57132;51.972;4.450;2023-03-22T01:25:33;100680.38;;;8.61;100.00
69836;BME280;57132;51.972;4.450;2023-03-22T01:27:58;100681.69;;;8.69;100.00
69836;BME280;57132;51.972;4.450;2023-03-22T01:30:27;100678.84;;;8.72;100.00
69836;BME280;57132;51.972;4.450;2023-03-22T01:32:52;100680.84;;;8.68;100.00
69836;BME280;57132;51.972;4.450;2023-03-22T01:35:17;100674.56;;;8.69;100.00
69836;BME280;57132;51.972;4.450;2023-03-22T01:37:43;100668.28;;;8.70;100.00
69836;BME280;57132;51.972;4.450;2023-03-22T01:40:10;100660.88;;;8.75;100.00
69836;BME280;57132;51.972;4.450;2023-03-22T01:42:36;100661.81;;;8.74;100.00
69836;BME280;57132;51.972;4.450;2023-03-22T01:47:46;100669.41;;;8.80;100.00
69836;BME280;57132;51.972;4.450;2023-03-22T01:50:13;100665.69;;;8.83;100.00
69836;BME280;57132;51.972;4.450;2023-03-22T01:52:41;100664.63;;;8.85;100.00
69836;BME280;57132;51.972;4.450;2023-03-22T01:55:06;100659.59;;;8.81;100.00
69836;BME280;57132;51.972;4.450;2023-03-22T01:57:34;100648.19;;;8.79;100.00
69836;BME280;57132;51.972;4.450;2023-03-22T02:00:04;100648.84;;;8.82;100.00
69836;BME280;57132;51.972;4.450;2023-03-22T02:02:37;100648.84;;;8.82;100.00
69836;BME280;57132;51.972;4.450;2023-03-22T02:05:03;100639.63;;;8.88;100.00
69836;BME280;57132;51.972;4.450;2023-03-22T02:07:29;100640.13;;;8.80;100.00
69836;BME280;57132;51.972;4.450;2023-03-22T02:09:56;100636.63;;;8.80;100.00
69836;BME280;57132;51.972;4.450;2023-03-22T02:15:09;100622.34;;;8.81;100.00
69836;BME280;57132;51.972;4.450;2023-03-22T02:17:50;100621.31;;;8.83;100.00
69836;BME280;57132;51.972;4.450;2023-03-22T02:37:06;100613.41;;;8.95;100.00
69836;BME280;57132;51.972;4.450;2023-03-22T02:45:17;100605.41;;;8.82;100.00
69836;BME280;57132;51.972;4.450;2023-03-22T02:50:30;100596.50;;;8.96;100.00
69836;BME280;57132;51.972;4.450;2023-03-22T02:53:05;100609.31;;;9.03;100.00
69836;BME280;57132;51.972;4.450;2023-03-22T02:55:43;100595.75;;;9.06;100.00
69836;BME280;57132;51.972;4.450;2023-03-22T02:58:19;100584.19;;;9.07;100.00
69836;BME280;57132;51.972;4.450;2023-03-22T03:00:49;100589.59;;;9.06;100.00
69836;BME280;57132;51.972;4.450;2023-03-22T03:03:17;100580.94;;;9.02;100.00
69836;BME280;57132;51.972;4.450;2023-03-22T03:05:46;100586.06;;;9.05;100.00
69836;BME280;57132;51.972;4.450;2023-03-22T03:08:15;100582.69;;;9.16;100.00
69836;BME280;57132;51.972;4.450;2023-03-22T03:10:43;100575.53;;;9.17;100.00
69836;BME280;57132;51.972;4.450;2023-03-22T03:13:13;100590.88;;;9.13;100.00
69836;BME280;57132;51.972;4.450;2023-03-22T03:15:41;100577.25;;;9.05;100.00
69836;BME280;57132;51.972;4.450;2023-03-22T03:18:18;100573.94;;;9.01;100.00
69836;BME280;57132;51.972;4.450;2023-03-22T03:21:05;100579.56;;;8.97;100.00
69836;BME280;57132;51.972;4.450;2023-03-22T03:26:33;100570.81;;;8.95;100.00
69836;BME280;57132;51.972;4.450;2023-03-22T03:32:04;100564.88;;;8.91;100.00
69836;BME280;57132;51.972;4.450;2023-03-22T03:34:52;100577.63;;;8.86;100.00
69836;BME280;57132;51.972;4.450;2023-03-22T03:37:25;100566.25;;;8.84;100.00
69836;BME280;57132;51.972;4.450;2023-03-22T03:40:16;100572.31;;;8.86;100.00
69836;BME280;57132;51.972;4.450;2023-03-22T03:42:47;100567.41;;;8.80;100.00
69836;BME280;57132;51.972;4.450;2023-03-22T03:45:15;100558.47;;;8.81;100.00
69836;BME280;57132;51.972;4.450;2023-03-22T03:47:43;100572.31;;;8.86;100.00
69836;BME280;57132;51.972;4.450;2023-03-22T03:50:11;100580.53;;;8.83;100.00
69836;BME280;57132;51.972;4.450;2023-03-22T03:52:39;100569.88;;;8.83;100.00
69836;BME280;57132;51.972;4.450;2023-03-22T03:55:04;100564.31;;;8.86;100.00
69836;BME280;57132;51.972;4.450;2023-03-22T03:57:30;100571.91;;;8.79;100.00
69836;BME280;57132;51.972;4.450;2023-03-22T03:59:55;100558.47;;;8.81;100.00
69836;BME280;57132;51.972;4.450;2023-03-22T04:02:21;100564.56;;;8.83;100.00
69836;BME280;57132;51.972;4.450;2023-03-22T04:04:46;100560.94;;;8.84;100.00
69836;BME280;57132;51.972;4.450;2023-03-22T04:07:11;100552.50;;;8.77;100.00
69836;BME280;57132;51.972;4.450;2023-03-22T04:09:37;100547.81;;;8.81;100.00
69836;BME280;57132;51.972;4.450;2023-03-22T04:12:03;100540.59;;;8.83;100.00
69836;BME280;57132;51.972;4.450;2023-03-22T04:14:29;100553.91;;;8.83;100.00
69836;BME280;57132;51.972;4.450;2023-03-22T04:16:55;100541.53;;;8.82;100.00
69836;BME280;57132;51.972;4.450;2023-03-22T04:19:21;100544.31;;;8.80;100.00
69836;BME280;57132;51.972;4.450;2023-03-22T04:21:47;100548.16;;;8.76;100.00
69836;BME280;57132;51.972;4.450;2023-03-22T04:24:13;100543.28;;;8.83;100.00
69836;BME280;57132;51.972;4.450;2023-03-22T04:26:39;100539.31;;;8.76;100.00
69836;BME280;57132;51.972;4.450;2023-03-22T04:29:04;100542.19;;;8.73;100.00
69836;BME280;57132;51.972;4.450;2023-03-22T04:31:32;100524.84;;;8.67;100.00
69836;BME280;57132;51.972;4.450;2023-03-22T04:33:58;100528.84;;;8.60;100.00
69836;BME280;57132;51.972;4.450;2023-03-22T04:36:25;100532.69;;;8.56;100.00
69836;BME280;57132;51.972;4.450;2023-03-22T04:38:55;100530.44;;;8.62;100.00
69836;BME280;57132;51.972;4.450;2023-03-22T04:41:21;100526.84;;;8.64;100.00
69836;BME280;57132;51.972;4.450;2023-03-22T04:43:47;100524.19;;;8.64;100.00
69836;BME280;57132;51.972;4.450;2023-03-22T04:46:15;100510.88;;;8.64;100.00
69836;BME280;57132;51.972;4.450;2023-03-22T04:48:41;100519.50;;;8.67;100.00
69836;BME280;57132;51.972;4.450;2023-03-22T04:51:08;100516.72;;;8.69;100.00
69836;BME280;57132;51.972;4.450;2023-03-22T04:53:34;100522.06;;;8.69;100.00
69836;BME280;57132;51.972;4.450;2023-03-22T04:56:04;100527.19;;;8.72;100.00
69836;BME280;57132;51.972;4.450;2023-03-22T04:58:31;100536.97;;;8.71;100.00
69836;BME280;57132;51.972;4.450;2023-03-22T05:00:57;100519.19;;;8.72;100.00
69836;BME280;57132;51.972;4.450;2023-03-22T05:03:22;100536.22;;;8.69;100.00
69836;BME280;57132;51.972;4.450;2023-03-22T05:05:53;100521.63;;;8.75;100.00
69836;BME280;57132;51.972;4.450;2023-03-22T05:08:23;100529.19;;;8.81;100.00
69836;BME280;57132;51.972;4.450;2023-03-22T05:10:50;100516.00;;;8.79;100.00
69836;BME280;57132;51.972;4.450;2023-03-22T05:13:17;100508.88;;;8.80;100.00
69836;BME280;57132;51.972;4.450;2023-03-22T05:15:42;100524.72;;;8.81;100.00
69836;BME280;57132;51.972;4.450;2023-03-22T05:18:08;100508.75;;;8.81;100.00
69836;BME280;57132;51.972;4.450;2023-03-22T05:20:33;100520.44;;;8.79;100.00
69836;BME280;57132;51.972;4.450;2023-03-22T05:22:59;100506.28;;;8.78;100.00
69836;BME280;57132;51.972;4.450;2023-03-22T05:25:26;100517.91;;;8.77;100.00
69836;BME280;57132;51.972;4.450;2023-03-22T05:27:52;100505.78;;;8.73;100.00
69836;BME280;57132;51.972;4.450;2023-03-22T05:30:19;100512.78;;;8.74;100.00
69836;BME280;57132;51.972;4.450;2023-03-22T05:32:44;100498.09;;;8.81;100.00
69836;BME280;57132;51.972;4.450;2023-03-22T05:35:11;100489.47;;;8.78;100.00
69836;BME280;57132;51.972;4.450;2023-03-22T05:37:37;100495.00;;;8.75;100.00
69836;BME280;57132;51.972;4.450;2023-03-22T05:40:03;100490.44;;;8.77;100.00
69836;BME280;57132;51.972;4.450;2023-03-22T05:42:34;100487.66;;;8.78;100.00
69836;BME280;57132;51.972;4.450;2023-03-22T05:45:01;100486.94;;;8.89;100.00
69836;BME280;57132;51.972;4.450;2023-03-22T05:47:26;100492.91;;;8.93;100.00
69836;BME280;57132;51.972;4.450;2023-03-22T05:49:51;100481.63;;;8.89;100.00
69836;BME280;57132;51.972;4.450;2023-03-22T05:52:17;100504.19;;;8.83;100.00
69836;BME280;57132;51.972;4.450;2023-03-22T05:54:42;100490.34;;;8.91;100.00
69836;BME280;57132;51.972;4.450;2023-03-22T05:57:08;100505.88;;;8.97;100.00
69836;BME280;57132;51.972;4.450;2023-03-22T05:59:33;100489.59;;;8.89;100.00
69836;BME280;57132;51.972;4.450;2023-03-22T06:01:58;100488.88;;;8.87;100.00
69836;BME280;57132;51.972;4.450;2023-03-22T06:04:24;100498.53;;;8.88;100.00
69836;BME280;57132;51.972;4.450;2023-03-22T06:06:49;100494.38;;;8.97;100.00
69836;BME280;57132;51.972;4.450;2023-03-22T06:09:15;100494.28;;;8.98;100.00
69836;BME280;57132;51.972;4.450;2023-03-22T06:11:40;100484.59;;;8.97;100.00
69836;BME280;57132;51.972;4.450;2023-03-22T06:14:06;100485.56;;;8.96;100.00
69836;BME280;57132;51.972;4.450;2023-03-22T06:16:31;100493.34;;;8.99;100.00
69836;BME280;57132;51.972;4.450;2023-03-22T06:18:56;100488.31;;;9.07;100.00
69836;BME280;57132;51.972;4.450;2023-03-22T06:21:22;100485.66;;;9.07;100.00
69836;BME280;57132;51.972;4.450;2023-03-22T06:23:47;100492.16;;;9.03;100.00
69836;BME280;57132;51.972;4.450;2023-03-22T06:26:12;100486.84;;;9.03;100.00
69836;BME280;57132;51.972;4.450;2023-03-22T06:28:38;100481.59;;;9.02;100.00
69836;BME280;57132;51.972;4.450;2023-03-22T06:31:07;100486.19;;;9.00;100.00
69836;BME280;57132;51.972;4.450;2023-03-22T06:33:34;100481.84;;;8.99;100.00
69836;BME280;57132;51.972;4.450;2023-03-22T06:36:00;100484.38;;;9.00;100.00
69836;BME280;57132;51.972;4.450;2023-03-22T06:38:27;100493.44;;;8.98;100.00
69836;BME280;57132;51.972;4.450;2023-03-22T06:40:52;100491.59;;;8.98;100.00
69836;BME280;57132;51.972;4.450;2023-03-22T06:43:17;100484.25;;;9.02;100.00
69836;BME280;57132;51.972;4.450;2023-03-22T06:45:46;100479.50;;;9.07;100.00
69836;BME280;57132;51.972;4.450;2023-03-22T06:48:12;100481.06;;;9.09;100.00
69836;BME280;57132;51.972;4.450;2023-03-22T06:50:37;100486.19;;;9.13;100.00
69836;BME280;57132;51.972;4.450;2023-03-22T06:53:04;100493.41;;;9.10;100.00
69836;BME280;57132;51.972;4.450;2023-03-22T06:55:30;100479.56;;;9.18;100.00
69836;BME280;57132;51.972;4.450;2023-03-22T06:58:02;100478.09;;;9.27;100.00
69836;BME280;57132;51.972;4.450;2023-03-22T07:00:28;100492.75;;;9.32;100.00
69836;BME280;57132;51.972;4.450;2023-03-22T07:02:54;100478.91;;;9.40;100.00
69836;BME280;57132;51.972;4.450;2023-03-22T07:05:20;100512.56;;;9.41;100.00
69836;BME280;57132;51.972;4.450;2023-03-22T07:07:45;100489.34;;;9.43;100.00
69836;BME280;57132;51.972;4.450;2023-03-22T07:10:11;100492.94;;;9.42;100.00
69836;BME280;57132;51.972;4.450;2023-03-22T07:12:37;100476.66;;;9.47;100.00
69836;BME280;57132;51.972;4.450;2023-03-22T07:15:03;100469.91;;;9.54;100.00
69836;BME280;57132;51.972;4.450;2023-03-22T07:17:29;100471.56;;;9.68;100.00
69836;BME280;57132;51.972;4.450;2023-03-22T07:19:54;100484.22;;;9.77;100.00
69836;BME280;57132;51.972;4.450;2023-03-22T07:22:20;100472.94;;;9.73;100.00
69836;BME280;57132;51.972;4.450;2023-03-22T07:24:50;100490.41;;;9.77;100.00
69836;BME280;57132;51.972;4.450;2023-03-22T07:27:16;100487.56;;;9.68;100.00
69836;BME280;57132;51.972;4.450;2023-03-22T07:29:41;100478.78;;;9.54;100.00
69836;BME280;57132;51.972;4.450;2023-03-22T07:32:07;100488.53;;;9.54;100.00
69836;BME280;57132;51.972;4.450;2023-03-22T07:34:32;100498.69;;;9.49;100.00
69836;BME280;57132;51.972;4.450;2023-03-22T07:36:58;100492.59;;;9.59;100.00
69836;BME280;57132;51.972;4.450;2023-03-22T07:39:23;100484.16;;;9.66;100.00
69836;BME280;57132;51.972;4.450;2023-03-22T07:41:50;100493.97;;;9.65;100.00
69836;BME280;57132;51.972;4.450;2023-03-22T07:44:17;100481.66;;;9.51;100.00
69836;BME280;57132;51.972;4.450;2023-03-22T07:46:42;100494.38;;;9.35;100.00
69836;BME280;57132;51.972;4.450;2023-03-22T07:49:08;100483.41;;;9.27;100.00
69836;BME280;57132;51.972;4.450;2023-03-22T07:51:33;100488.72;;;9.27;100.00
69836;BME280;57132;51.972;4.450;2023-03-22T07:54:00;100485.44;;;9.23;100.00
69836;BME280;57132;51.972;4.450;2023-03-22T07:56:25;100491.81;;;9.21;100.00
69836;BME280;57132;51.972;4.450;2023-03-22T07:58:51;100486.19;;;9.13;100.00
69836;BME280;57132;51.972;4.450;2023-03-22T08:01:16;100490.88;;;9.09;100.00
69836;BME280;57132;51.972;4.450;2023-03-22T08:03:42;100487.69;;;9.04;100.00
69836;BME280;57132;51.972;4.450;2023-03-22T08:06:07;100501.31;;;8.99;100.00
69836;BME280;57132;51.972;4.450;2023-03-22T08:08:34;100493.97;;;8.90;100.00
69836;BME280;57132;51.972;4.450;2023-03-22T08:11:01;100516.22;;;8.76;100.00
69836;BME280;57132;51.972;4.450;2023-03-22T08:13:26;100506.41;;;8.64;100.00
69836;BME280;57132;51.972;4.450;2023-03-22T08:15:51;100492.78;;;8.56;100.00
69836;BME280;57132;51.972;4.450;2023-03-22T08:18:17;100499.03;;;8.55;100.00
69836;BME280;57132;51.972;4.450;2023-03-22T08:20:42;100505.31;;;8.54;100.00
69836;BME280;57132;51.972;4.450;2023-03-22T08:23:10;100482.44;;;8.51;100.00
69836;BME280;57132;51.972;4.450;2023-03-22T08:25:41;100477.22;;;8.50;100.00
69836;BME280;57132;51.972;4.450;2023-03-22T08:28:07;100499.34;;;8.50;100.00
69836;BME280;57132;51.972;4.450;2023-03-22T08:30:33;100505.75;;;8.48;100.00
69836;BME280;57132;51.972;4.450;2023-03-22T08:32:58;100494.47;;;8.44;100.00
69836;BME280;57132;51.972;4.450;2023-03-22T08:35:24;100476.78;;;8.43;100.00
69836;BME280;57132;51.972;4.450;2023-03-22T08:37:54;100487.22;;;8.46;100.00
69836;BME280;57132;51.972;4.450;2023-03-22T08:40:19;100472.22;;;8.45;100.00
69836;BME280;57132;51.972;4.450;2023-03-22T08:42:46;100453.59;;;8.45;100.00
69836;BME280;57132;51.972;4.450;2023-03-22T08:45:12;100482.97;;;8.44;100.00
69836;BME280;57132;51.972;4.450;2023-03-22T08:47:37;100471.38;;;8.45;100.00
69836;BME280;57132;51.972;4.450;2023-03-22T08:50:03;100475.72;;;8.46;100.00
69836;BME280;57132;51.972;4.450;2023-03-22T08:52:28;100485.53;;;8.45;100.00
69836;BME280;57132;51.972;4.450;2023-03-22T08:54:54;100465.19;;;8.44;100.00
69836;BME280;57132;51.972;4.450;2023-03-22T08:57:20;100495.31;;;8.45;100.00
69836;BME280;57132;51.972;4.450;2023-03-22T08:59:48;100470.53;;;8.44;100.00
69836;BME280;57132;51.972;4.450;2023-03-22T09:02:16;100467.75;;;8.46;100.00
69836;BME280;57132;51.972;4.450;2023-03-22T09:04:41;100478.28;;;8.47;100.00
69836;BME280;57132;51.972;4.450;2023-03-22T09:07:07;100473.91;;;8.46;100.00
69836;BME280;57132;51.972;4.450;2023-03-22T09:09:33;100462.31;;;8.47;100.00
69836;BME280;57132;51.972;4.450;2023-03-22T09:11:58;100465.72;;;8.49;100.00
69836;BME280;57132;51.972;4.450;2023-03-22T09:14:23;100477.97;;;8.52;100.00
69836;BME280;57132;51.972;4.450;2023-03-22T09:16:49;100478.63;;;8.55;100.00
69836;BME280;57132;51.972;4.450;2023-03-22T09:19:15;100467.88;;;8.57;100.00
69836;BME280;57132;51.972;4.450;2023-03-22T09:21:41;100454.44;;;8.58;100.00
69836;BME280;57132;51.972;4.450;2023-03-22T09:24:07;100459.56;;;8.61;100.00
69836;BME280;57132;51.972;4.450;2023-03-22T09:26:32;100463.19;;;8.60;100.00
69836;BME280;57132;51.972;4.450;2023-03-22T09:28:58;100487.88;;;8.62;100.00
69836;BME280;57132;51.972;4.450;2023-03-22T09:31:23;100455.09;;;8.62;100.00
69836;BME280;57132;51.972;4.450;2023-03-22T09:33:49;100487.88;;;8.62;100.00
69836;BME280;57132;51.972;4.450;2023-03-22T09:36:14;100453.19;;;8.64;100.00
69836;BME280;57132;51.972;4.450;2023-03-22T09:38:40;100457.34;;;8.68;100.00
69836;BME280;57132;51.972;4.450;2023-03-22T09:41:11;100470.34;;;8.73;100.00
69836;BME280;57132;51.972;4.450;2023-03-22T09:43:48;100478.31;;;8.73;100.00
69836;BME280;57132;51.972;4.450;2023-03-22T09:46:36;100470.22;;;8.74;100.00
69836;BME280;57132;51.972;4.450;2023-03-22T09:49:06;100463.41;;;8.70;100.00
69836;BME280;57132;51.972;4.450;2023-03-22T09:51:46;100506.09;;;8.69;100.00
69836;BME280;57132;51.972;4.450;2023-03-22T09:56:53;100459.44;;;8.63;100.00
69836;BME280;57132;51.972;4.450;2023-03-22T10:01:59;100484.59;;;8.72;100.00
69836;BME280;57132;51.972;4.450;2023-03-22T10:10:08;100473.19;;;8.70;100.00
69836;BME280;57132;51.972;4.450;2023-03-22T10:12:52;100468.41;;;8.75;100.00
69836;BME280;57132;51.972;4.450;2023-03-22T10:15:23;100474.69;;;8.74;100.00
69836;BME280;57132;51.972;4.450;2023-03-22T10:17:54;100473.72;;;8.75;100.00
69836;BME280;57132;51.972;4.450;2023-03-22T10:20:35;100466.63;;;8.75;100.00
69836;BME280;57132;51.972;4.450;2023-03-22T10:23:04;100467.22;;;8.79;100.00
69836;BME280;57132;51.972;4.450;2023-03-22T10:25:36;100445.41;;;8.86;100.00
69836;BME280;57132;51.972;4.450;2023-03-22T10:28:24;100431.38;;;8.84;100.00
69836;BME280;57132;51.972;4.450;2023-03-22T10:30:55;100472.78;;;8.89;100.00
69836;BME280;57132;51.972;4.450;2023-03-22T10:35:53;100448.28;;;8.96;100.00
69836;BME280;57132;51.972;4.450;2023-03-22T10:38:25;100443.69;;;8.98;100.00
69836;BME280;57132;51.972;4.450;2023-03-22T10:40:53;100445.41;;;8.99;100.00
69836;BME280;57132;51.972;4.450;2023-03-22T10:43:32;100439.22;;;9.11;100.00
69836;BME280;57132;51.972;4.450;2023-03-22T10:46:01;100444.94;;;9.18;100.00
69836;BME280;57132;51.972;4.450;2023-03-22T10:48:31;100432.50;;;9.19;100.00
69836;BME280;57132;51.972;4.450;2023-03-22T10:50:58;100438.56;;;9.21;100.00
69836;BME280;57132;51.972;4.450;2023-03-22T10:53:39;100427.22;;;9.30;100.00
69836;BME280;57132;51.972;4.450;2023-03-22T10:56:18;100415.94;;;9.39;100.00
69836;BME280;57132;51.972;4.450;2023-03-22T10:58:51;100440.72;;;9.52;100.00
69836;BME280;57132;51.972;4.450;2023-03-22T11:01:34;100422.97;;;9.64;100.00
69836;BME280;57132;51.972;4.450;2023-03-22T11:04:13;100433.28;;;9.69;100.00
69836;BME280;57132;51.972;4.450;2023-03-22T11:06:51;100435.00;;;9.70;100.00
69836;BME280;57132;51.972;4.450;2023-03-22T11:09:21;100436.09;;;9.67;100.00
69836;BME280;57132;51.972;4.450;2023-03-22T11:11:56;100451.50;;;9.75;100.00
69836;BME280;57132;51.972;4.450;2023-03-22T11:14:34;100466.41;;;9.77;100.00
69836;BME280;57132;51.972;4.450;2023-03-22T11:17:21;100475.72;;;9.72;100.00
69836;BME280;57132;51.972;4.450;2023-03-22T11:19:56;100469.63;;;9.70;100.00
69836;BME280;57132;51.972;4.450;2023-03-22T11:22:32;100482.97;;;9.70;100.00
69836;BME280;57132;51.972;4.450;2023-03-22T11:24:59;100496.19;;;9.71;100.00
69836;BME280;57132;51.972;4.450;2023-03-22T11:27:29;100498.94;;;9.70;100.00
69836;BME280;57132;51.972;4.450;2023-03-22T11:30:18;100500.88;;;9.68;100.00
69836;BME280;57132;51.972;4.450;2023-03-22T11:32:44;100490.84;;;9.71;100.00
69836;BME280;57132;51.972;4.450;2023-03-22T11:35:24;100496.91;;;9.73;100.00
69836;BME280;57132;51.972;4.450;2023-03-22T11:37:52;100489.88;;;9.72;100.00
69836;BME280;57132;51.972;4.450;2023-03-22T11:40:26;100478.16;;;9.75;100.00
69836;BME280;57132;51.972;4.450;2023-03-22T11:43:16;100501.19;;;9.76;100.00
69836;BME280;57132;51.972;4.450;2023-03-22T11:45:44;100467.78;;;9.83;100.00
69836;BME280;57132;51.972;4.450;2023-03-22T11:48:26;100560.13;;;9.84;100.00
69836;BME280;57132;51.972;4.450;2023-03-22T11:50:54;100494.81;;;9.90;100.00
69836;BME280;57132;51.972;4.450;2023-03-22T11:53:22;100494.72;;;9.91;100.00
69836;BME280;57132;51.972;4.450;2023-03-22T11:55:51;100471.09;;;9.87;100.00
69836;BME280;57132;51.972;4.450;2023-03-22T11:58:41;100500.16;;;9.90;100.00
69836;BME280;57132;51.972;4.450;2023-03-22T12:01:25;100485.97;;;9.89;100.00
69836;BME280;57132;51.972;4.450;2023-03-22T12:03:55;100504.44;;;9.92;100.00
69836;BME280;57132;51.972;4.450;2023-03-22T12:06:24;100492.06;;;9.91;100.00
69836;BME280;57132;51.972;4.450;2023-03-22T12:08:55;100488.44;;;9.92;100.00
69836;BME280;57132;51.972;4.450;2023-03-22T12:11:27;100477.53;;;9.95;100.00
69836;BME280;57132;51.972;4.450;2023-03-22T12:16:51;100488.50;;;10.03;100.00
69836;BME280;57132;51.972;4.450;2023-03-22T12:19:47;100460.41;;;10.10;100.00
69836;BME280;57132;51.972;4.450;2023-03-22T12:22:16;100467.22;;;10.15;100.00
69836;BME280;57132;51.972;4.450;2023-03-22T12:24:42;100456.31;;;10.18;100.00
69836;BME280;57132;51.972;4.450;2023-03-22T12:27:30;100459.47;;;10.23;100.00
69836;BME280;57132;51.972;4.450;2023-03-22T12:30:03;100453.97;;;10.26;100.00
69836;BME280;57132;51.972;4.450;2023-03-22T12:32:35;100464.63;;;10.26;100.00
69836;BME280;57132;51.972;4.450;2023-03-22T12:35:04;100452.75;;;10.30;100.00
69836;BME280;57132;51.972;4.450;2023-03-22T12:37:34;100459.56;;;10.34;100.00
69836;BME280;57132;51.972;4.450;2023-03-22T12:45:37;100468.31;;;10.47;100.00
69836;BME280;57132;51.972;4.450;2023-03-22T12:48:18;100469.91;;;10.50;100.00
69836;BME280;57132;51.972;4.450;2023-03-22T12:50:52;100462.97;;;10.47;100.00
69836;BME280;57132;51.972;4.450;2023-03-22T12:53:21;100476.59;;;10.55;100.00
69836;BME280;57132;51.972;4.450;2023-03-22T12:55:48;100455.25;;;10.55;100.00
69836;BME280;57132;51.972;4.450;2023-03-22T12:58:19;100459.88;;;10.53;100.00
69836;BME280;57132;51.972;4.450;2023-03-22T13:00:58;100464.94;;;10.56;100.00
69836;BME280;57132;51.972;4.450;2023-03-22T13:03:28;100509.38;;;10.57;100.00
69836;BME280;57132;51.972;4.450;2023-03-22T13:06:04;100475.50;;;10.58;100.00
69836;BME280;57132;51.972;4.450;2023-03-22T13:11:30;100480.72;;;10.59;100.00
69836;BME280;57132;51.972;4.450;2023-03-22T13:13:55;100472.00;;;10.57;100.00
69836;BME280;57132;51.972;4.450;2023-03-22T13:16:22;100478.28;;;10.56;100.00
69836;BME280;57132;51.972;4.450;2023-03-22T13:21:25;100455.84;;;10.59;100.00
69836;BME280;57132;51.972;4.450;2023-03-22T13:24:21;100459.16;;;10.63;100.00
69836;BME280;57132;51.972;4.450;2023-03-22T13:26:53;100448.59;;;10.72;100.00
69836;BME280;57132;51.972;4.450;2023-03-22T13:29:35;100448.59;;;10.72;100.00
69836;BME280;57132;51.972;4.450;2023-03-22T13:32:05;100458.19;;;10.75;100.00
69836;BME280;57132;51.972;4.450;2023-03-22T13:34:43;100455.66;;;10.73;100.00
69836;BME280;57132;51.972;4.450;2023-03-22T13:39:50;100464.63;;;10.83;100.00
69836;BME280;57132;51.972;4.450;2023-03-22T13:42:20;100450.44;;;10.83;100.00
69836;BME280;57132;51.972;4.450;2023-03-22T13:44:54;100463.91;;;10.81;100.00
69836;BME280;57132;51.972;4.450;2023-03-22T13:50:06;100451.75;;;10.66;100.00
69836;BME280;57132;51.972;4.450;2023-03-22T13:52:41;100457.34;;;10.74;100.00
69836;BME280;57132;51.972;4.450;2023-03-22T13:58:34;100429.28;;;10.69;100.00
69836;BME280;57132;51.972;4.450;2023-03-22T14:01:25;100440.72;;;10.71;100.00
69836;BME280;57132;51.972;4.450;2023-03-22T14:03:56;100425.94;;;10.78;100.00
69836;BME280;57132;51.972;4.450;2023-03-22T14:06:29;100419.13;;;10.85;100.00
69836;BME280;57132;51.972;4.450;2023-03-22T14:09:24;100421.78;;;10.74;100.00